createdAt,value
2019-04-07T00:00:01.935Z,60.20
2019-04-07T00:02:32.435Z,61.10
2019-04-07T00:05:11.123Z,57.30
2019-04-07T00:07:38.016Z,57.87
2019-04-07T00:10:11.176Z,58.07
2019-04-07T00:12:55.748Z,58.30
2019-04-07T00:15:27.766Z,58.13
2019-04-07T00:18:01.372Z,58.43
2019-04-07T00:20:32.119Z,65.50
2019-04-07T00:23:03.332Z,60.03
2019-04-07T00:25:33.707Z,60.90
2019-04-07T00:28:04.095Z,60.10
2019-04-07T00:30:37.495Z,66.60
2019-04-07T00:33:23.107Z,61.80
2019-04-07T00:35:55.915Z,59.47
2019-04-07T00:38:28.356Z,65.47
2019-04-07T00:41:03.095Z,62.67
2019-04-07T00:43:34.367Z,55.97
2019-04-07T00:46:05.643Z,62.77
2019-04-07T00:48:39.869Z,65.13
2019-04-07T00:51:13.060Z,63.40
2019-04-07T00:53:45.707Z,64.13
2019-04-07T00:56:24.702Z,65.80
2019-04-07T00:59:09.976Z,62.57
2019-04-07T01:01:47.229Z,62.07
2019-04-07T01:04:19.887Z,66.23
2019-04-07T01:06:51.731Z,66.20
2019-04-07T01:09:25.307Z,66.10
2019-04-07T01:11:59.539Z,68.07
2019-04-07T01:14:30.558Z,70.80
2019-04-07T01:17:03.682Z,64.57
2019-04-07T01:19:36.564Z,68.43
2019-04-07T01:22:41.060Z,64.23
2019-04-07T01:28:31.685Z,64.60
2019-04-07T01:31:03.454Z,67.17
2019-04-07T01:34:01.198Z,67.87
2019-04-07T01:36:38.234Z,62.17
2019-04-07T01:39:22.996Z,65.83
2019-04-07T01:42:02.619Z,66.67
2019-04-07T01:44:44.644Z,60.53
2019-04-07T01:47:30.524Z,65.30
2019-04-07T01:50:19.841Z,63.07
2019-04-07T01:53:03.496Z,57.60
2019-04-07T01:55:58.927Z,57.70
2019-04-07T01:58:52.430Z,63.73
2019-04-07T02:01:40.085Z,64.00
2019-04-07T02:04:32.468Z,66.70
2019-04-07T02:07:24.614Z,63.80
2019-04-07T02:10:25.268Z,63.30
2019-04-07T02:13:18.768Z,69.67
2019-04-07T02:16:11.444Z,66.57
2019-04-07T02:19:21.896Z,69.30
2019-04-07T02:22:17.366Z,68.10
2019-04-07T02:25:21.971Z,61.43
2019-04-07T02:28:16.480Z,61.70
2019-04-07T02:31:19.696Z,62.80
2019-04-07T02:34:00.126Z,61.27
2019-04-07T02:36:53.932Z,58.23
2019-04-07T02:40:00.247Z,55.57
2019-04-07T02:42:43.748Z,56.20
2019-04-07T02:45:36.811Z,56.57
2019-04-07T02:48:29.336Z,54.47
2019-04-07T02:51:11.241Z,52.37
2019-04-07T02:53:50.963Z,56.83
2019-04-07T02:56:46.193Z,53.80
2019-04-07T02:59:29.341Z,55.33
2019-04-07T03:02:34.679Z,57.73
2019-04-07T03:05:17.252Z,52.00
2019-04-07T03:08:09.155Z,60.67
2019-04-07T03:11:16.054Z,55.60
2019-04-07T03:13:54.955Z,54.50
2019-04-07T03:16:52.815Z,57.90
2019-04-07T03:19:30.576Z,53.80
2019-04-07T03:22:23.733Z,57.43
2019-04-07T03:25:16.184Z,59.00
2019-04-07T03:28:02.183Z,60.77
2019-04-07T03:30:42.362Z,59.57
2019-04-07T03:33:28.393Z,59.20
2019-04-07T03:36:18.593Z,60.53
2019-04-07T03:38:57.895Z,66.40
2019-04-07T03:41:39.985Z,57.07
2019-04-07T03:44:29.144Z,54.87
2019-04-07T03:47:17.116Z,54.77
2019-04-07T03:50:07.188Z,50.27
2019-04-07T03:52:56.579Z,60.37
2019-04-07T03:55:47.239Z,48.57
2019-04-07T03:58:25.812Z,50.87
2019-04-07T04:01:35.389Z,58.40
2019-04-07T04:04:41.429Z,54.43
2019-04-07T04:07:34.927Z,62.67
2019-04-07T04:10:06.974Z,62.73
2019-04-07T04:13:02.992Z,63.83
2019-04-07T04:15:46.907Z,63.13
2019-04-07T04:18:16.780Z,60.67
2019-04-07T04:20:46.557Z,59.40
2019-04-07T04:23:17.821Z,63.10
2019-04-07T04:25:47.628Z,61.50
2019-04-07T04:28:17.084Z,55.40
2019-04-07T04:30:46.650Z,62.20
2019-04-07T04:33:16.126Z,63.50
2019-04-07T04:35:46.644Z,61.10
2019-04-07T04:38:16.581Z,56.50
2019-04-07T04:40:46.009Z,61.70
2019-04-07T04:43:15.696Z,55.40
2019-04-07T04:45:46.044Z,54.70
2019-04-07T04:48:15.643Z,56.50
2019-04-07T04:50:45.787Z,55.13
2019-04-07T04:53:15.361Z,53.10
2019-04-07T04:55:44.696Z,60.43
2019-04-07T04:58:14.060Z,63.20
2019-04-07T05:00:43.458Z,60.17
2019-04-07T05:03:12.852Z,61.57
2019-04-07T05:05:42.299Z,62.57
2019-04-07T05:08:12.770Z,54.27
2019-04-07T05:10:42.741Z,55.90
2019-04-07T05:13:12.145Z,53.80
2019-04-07T05:15:42.100Z,57.17
2019-04-07T05:18:12.032Z,57.17
2019-04-07T05:20:42.045Z,56.90
2019-04-07T05:23:12.157Z,54.90
2019-04-07T05:25:41.592Z,55.87
2019-04-07T05:28:11.315Z,56.90
2019-04-07T05:30:41.452Z,51.67
2019-04-07T05:33:11.102Z,52.63
2019-04-07T05:35:40.623Z,55.57
2019-04-07T05:38:11.312Z,55.47
2019-04-07T05:40:41.011Z,57.50
2019-04-07T05:43:10.715Z,62.93
2019-04-07T05:45:41.056Z,65.87
2019-04-07T05:48:10.755Z,66.07
2019-04-07T05:50:40.709Z,67.70
2019-04-07T05:53:14.600Z,70.57
2019-04-07T05:55:42.617Z,68.57
2019-04-07T05:58:14.807Z,68.23
2019-04-07T06:00:45.732Z,70.30
2019-04-07T06:03:15.389Z,66.53
2019-04-07T06:05:48.295Z,71.80
2019-04-07T06:08:25.731Z,71.50
2019-04-07T06:10:48.811Z,71.67
2019-04-07T06:13:18.953Z,69.43
2019-04-07T06:15:51.377Z,73.87
2019-04-07T06:18:21.220Z,74.20
2019-04-07T06:20:52.011Z,81.20
2019-04-07T06:23:23.313Z,74.40
2019-04-07T06:25:55.586Z,72.50
2019-04-07T06:28:24.952Z,75.13
2019-04-07T06:30:54.381Z,79.97
2019-04-07T06:33:23.900Z,86.40
2019-04-07T06:35:55.089Z,84.07
2019-04-07T06:38:33.120Z,82.67
2019-04-07T06:41:03.103Z,85.43
2019-04-07T06:43:35.145Z,85.50
2019-04-07T06:46:27.676Z,80.70
2019-04-07T06:49:15.998Z,84.93
2019-04-07T06:52:07.361Z,78.73
2019-04-07T06:54:57.609Z,81.30
2019-04-07T06:57:50.696Z,83.67
2019-04-07T07:00:38.888Z,79.07
2019-04-07T07:03:33.523Z,80.63
2019-04-07T07:06:20.552Z,80.70
2019-04-07T07:09:00.857Z,79.00
2019-04-07T07:12:01.639Z,75.97
2019-04-07T07:14:55.102Z,75.57
2019-04-07T07:17:38.516Z,70.80
2019-04-07T07:20:17.674Z,73.90
2019-04-07T07:22:51.171Z,79.17
2019-04-07T07:25:20.701Z,76.00
2019-04-07T07:27:51.152Z,69.93
2019-04-07T07:30:21.374Z,72.87
2019-04-07T07:32:52.918Z,70.63
2019-04-07T07:35:22.412Z,67.00
2019-04-07T07:37:58.130Z,72.70
2019-04-07T07:40:26.481Z,67.60
2019-04-07T07:42:58.102Z,66.80
2019-04-07T07:45:27.420Z,58.23
2019-04-07T07:47:57.852Z,59.90
2019-04-07T07:50:28.350Z,58.63
2019-04-07T07:52:58.291Z,54.07
2019-04-07T07:55:33.726Z,52.93
2019-04-07T07:58:01.039Z,53.10
2019-04-07T08:00:30.968Z,50.70
2019-04-07T08:03:00.575Z,51.67
2019-04-07T08:05:33.385Z,47.87
2019-04-07T08:08:01.748Z,47.50
2019-04-07T08:10:31.288Z,44.13
2019-04-07T08:13:05.084Z,42.60
2019-04-07T08:15:33.381Z,42.13
2019-04-07T08:18:07.180Z,38.17
2019-04-07T08:20:42.933Z,38.57
2019-04-07T08:23:13.339Z,36.27
2019-04-07T08:25:43.740Z,34.73
2019-04-07T08:28:13.574Z,32.30
2019-04-07T08:30:47.200Z,30.20
2019-04-07T08:33:14.723Z,31.10
2019-04-07T08:35:45.909Z,29.33
2019-04-07T08:38:18.637Z,25.33
2019-04-07T08:40:46.917Z,26.23
2019-04-07T08:43:21.423Z,24.77
2019-04-07T08:45:50.325Z,23.70
2019-04-07T08:48:21.529Z,25.30
2019-04-07T08:50:59.835Z,23.40
2019-04-07T08:53:29.503Z,24.37
2019-04-07T08:55:59.947Z,24.77
2019-04-07T08:58:47.819Z,22.93
2019-04-07T09:01:20.314Z,22.70
2019-04-07T09:03:50.750Z,21.23
2019-04-07T09:15:04.007Z,21.50
2019-04-07T10:43:31.907Z,21.13
2019-04-07T10:58:50.281Z,21.50
2019-04-07T11:01:49.127Z,21.80
2019-04-07T11:04:47.369Z,21.73
2019-04-07T11:11:31.462Z,19.33
2019-04-07T11:17:54.468Z,23.27
2019-04-07T11:20:55.772Z,27.10
2019-04-07T11:27:37.642Z,25.33
2019-04-07T11:30:55.452Z,21.47
2019-04-07T11:34:22.681Z,20.90
2019-04-07T11:37:30.880Z,22.87
2019-04-07T11:40:42.046Z,21.60
2019-04-07T11:43:58.643Z,20.90
2019-04-07T11:50:02.400Z,22.50
2019-04-07T12:01:12.811Z,20.83
2019-04-07T12:04:37.939Z,20.80
2019-04-07T12:07:29.173Z,22.53
2019-04-07T12:10:33.208Z,18.70
2019-04-07T12:13:16.534Z,21.27
2019-04-07T12:16:27.723Z,21.13
2019-04-07T12:19:39.749Z,20.53
2019-04-07T12:25:48.583Z,21.33
2019-04-07T12:29:05.896Z,20.80
2019-04-07T12:31:57.758Z,22.93
2019-04-07T12:34:53.539Z,22.73
2019-04-07T12:37:43.742Z,20.57
2019-04-07T12:49:56.282Z,22.73
2019-04-07T12:53:32.133Z,22.73
2019-04-07T12:59:41.156Z,20.97
2019-04-07T13:02:53.236Z,22.93
2019-04-07T13:09:37.998Z,22.50
2019-04-07T13:41:59.042Z,23.50
2019-04-07T13:45:19.212Z,23.47
2019-04-07T13:48:18.392Z,19.60
2019-04-07T14:16:04.033Z,18.67
2019-04-07T16:48:58.467Z,21.87
2019-04-07T16:51:58.363Z,19.90
2019-04-07T16:54:52.731Z,19.27
2019-04-07T16:57:54.842Z,20.33
2019-04-07T17:04:00.864Z,20.90
2019-04-07T17:06:37.738Z,21.73
2019-04-07T17:09:25.038Z,20.97
2019-04-07T17:12:00.370Z,22.60
2019-04-07T17:14:35.980Z,21.53
2019-04-07T17:17:06.734Z,21.90
2019-04-07T17:19:37.288Z,22.20
2019-04-07T17:22:11.875Z,20.23
2019-04-07T17:24:42.693Z,21.10
2019-04-07T17:27:13.093Z,20.57
2019-04-07T17:29:44.448Z,22.73
2019-04-07T17:32:15.143Z,19.97
2019-04-07T17:34:45.352Z,22.10
2019-04-07T17:37:15.163Z,21.57
2019-04-07T17:40:00.221Z,20.87
2019-04-07T17:42:30.333Z,22.37
2019-04-07T17:45:21.308Z,21.03
2019-04-07T17:48:09.836Z,21.83
2019-04-07T17:50:48.710Z,22.20
2019-04-07T17:53:28.516Z,21.30
2019-04-07T17:56:29.705Z,21.20
2019-04-07T17:59:31.073Z,21.27
2019-04-07T18:02:11.911Z,25.07
2019-04-07T18:05:10.618Z,22.17
2019-04-07T18:08:02.941Z,20.90
2019-04-07T18:10:57.985Z,23.50
2019-04-07T18:13:49.957Z,20.27
2019-04-07T18:16:44.747Z,23.90
2019-04-07T18:19:43.126Z,22.07
2019-04-07T18:22:24.830Z,21.53
2019-04-07T18:25:17.320Z,20.30
2019-04-07T18:28:06.843Z,23.63
2019-04-07T18:31:04.394Z,24.40
2019-04-07T18:33:52.602Z,24.90
2019-04-07T18:36:47.118Z,22.20
2019-04-07T18:39:41.914Z,22.67
2019-04-07T18:42:36.642Z,21.17
2019-04-07T18:45:19.353Z,23.10
2019-04-07T18:48:11.342Z,22.90
2019-04-07T18:51:03.116Z,21.73
2019-04-07T18:53:48.912Z,22.37
2019-04-07T18:56:38.615Z,24.20
2019-04-07T18:59:21.531Z,22.10
2019-04-07T19:02:19.486Z,22.63
2019-04-07T19:05:00.806Z,21.50
2019-04-07T19:07:37.945Z,21.90
2019-04-07T19:10:39.062Z,21.13
2019-04-07T19:13:36.932Z,22.37
2019-04-07T19:16:28.478Z,24.33
2019-04-07T19:19:15.222Z,20.10
2019-04-07T19:22:10.948Z,22.53
2019-04-07T19:25:04.223Z,22.70
2019-04-07T19:27:48.339Z,23.83
2019-04-07T19:30:45.353Z,23.43
2019-04-07T19:33:35.619Z,21.37
2019-04-07T19:36:23.999Z,21.43
2019-04-07T19:39:09.050Z,20.07
2019-04-07T19:41:56.380Z,22.13
2019-04-07T19:44:53.083Z,21.47
2019-04-07T19:47:39.756Z,24.17
2019-04-07T19:50:28.570Z,23.07
2019-04-07T19:53:20.400Z,23.47
2019-04-07T19:56:25.256Z,24.50
2019-04-07T19:59:12.851Z,23.30
2019-04-07T20:02:10.464Z,24.77
2019-04-07T20:04:55.078Z,21.87
2019-04-07T20:07:52.739Z,21.87
2019-04-07T20:10:30.460Z,23.70
2019-04-07T20:13:22.063Z,25.60
2019-04-07T20:16:00.476Z,24.60
2019-04-07T20:18:58.591Z,24.93
2019-04-07T20:21:49.379Z,23.03
2019-04-07T20:24:36.689Z,25.00
2019-04-07T20:27:13.640Z,22.77
2019-04-07T20:30:02.976Z,25.53
2019-04-07T20:32:40.167Z,24.13
2019-04-07T20:35:28.587Z,22.10
2019-04-07T20:38:19.213Z,25.87
2019-04-07T20:41:13.613Z,24.67
2019-04-07T20:43:51.287Z,23.73
2019-04-07T20:46:47.444Z,25.90
2019-04-07T20:49:35.718Z,24.07
2019-04-07T20:52:34.222Z,27.23
2019-04-07T20:55:15.592Z,24.43
2019-04-07T20:58:15.198Z,25.30
2019-04-07T21:01:00.701Z,25.17
2019-04-07T21:03:47.652Z,26.83
2019-04-07T21:06:38.058Z,25.63
2019-04-07T21:09:33.345Z,25.67
2019-04-07T21:12:08.157Z,25.47
2019-04-07T21:15:16.919Z,25.77
2019-04-07T21:17:39.654Z,24.50
2019-04-07T21:20:20.084Z,24.20
2019-04-07T21:23:17.136Z,25.27
2019-04-07T21:25:56.024Z,23.87
2019-04-07T21:28:39.026Z,25.40
2019-04-07T21:31:26.154Z,26.37
2019-04-07T21:34:30.787Z,25.70
2019-04-07T21:37:23.039Z,24.10
2019-04-07T21:40:10.346Z,23.90
2019-04-07T21:43:17.953Z,26.27
2019-04-07T21:46:07.945Z,22.40
2019-04-07T21:48:57.975Z,25.40
2019-04-07T21:51:49.842Z,26.50
2019-04-07T21:54:39.119Z,25.77
2019-04-07T21:57:30.201Z,25.83
2019-04-07T22:00:21.574Z,24.07
2019-04-07T22:03:08.788Z,25.90
2019-04-07T22:05:49.016Z,22.90
2019-04-07T22:08:27.091Z,23.13
2019-04-07T22:10:57.364Z,22.63
2019-04-07T22:13:28.527Z,24.17
2019-04-07T22:16:01.690Z,22.90
2019-04-07T22:18:29.651Z,25.47
2019-04-07T22:20:59.243Z,24.00
2019-04-07T22:23:30.703Z,23.60
2019-04-07T22:26:00.058Z,21.70
2019-04-07T22:28:30.312Z,21.93
2019-04-07T22:31:01.501Z,26.37
2019-04-07T22:33:32.537Z,23.23
2019-04-07T22:36:02.343Z,23.77
2019-04-07T22:38:31.798Z,23.77
2019-04-07T22:41:02.703Z,25.43
2019-04-07T22:43:32.382Z,24.33
2019-04-07T22:46:09.349Z,23.40
2019-04-07T22:48:33.089Z,24.83
2019-04-07T22:51:04.256Z,25.77
2019-04-07T22:53:35.002Z,25.00
2019-04-07T22:56:07.811Z,26.47
2019-04-07T22:58:36.175Z,23.40
2019-04-07T23:01:05.698Z,25.97
2019-04-07T23:03:35.299Z,25.53
2019-04-07T23:06:05.192Z,25.30
2019-04-07T23:08:35.079Z,28.37
2019-04-07T23:11:06.431Z,28.73
2019-04-07T23:13:37.480Z,24.37
2019-04-07T23:16:12.819Z,24.80
2019-04-07T23:18:38.553Z,26.97
2019-04-07T23:21:08.100Z,23.47
2019-04-07T23:23:38.252Z,29.70
2019-04-07T23:26:07.959Z,27.90
2019-04-07T23:28:37.328Z,28.33
2019-04-07T23:31:07.517Z,28.83
2019-04-07T23:33:38.259Z,29.03
2019-04-07T23:36:09.450Z,24.93
2019-04-07T23:38:39.125Z,30.47
2019-04-07T23:41:09.555Z,31.87
2019-04-07T23:43:39.883Z,31.33
2019-04-07T23:46:19.827Z,31.87
2019-04-07T23:48:41.008Z,31.00
2019-04-07T23:51:10.528Z,31.17
2019-04-07T23:54:08.858Z,30.97
2019-04-07T23:56:39.517Z,34.77
2019-04-07T23:59:10.220Z,32.80
